sensor_id;sensor_type;location;lat;lon;timestamp;P1;durP1;ratioP1;P2;durP2;ratioP2
48635;SDS011;34429;52.332;5.614;2023-02-03T00:00:45;11.33;;;2.67;;
48635;SDS011;34429;52.332;5.614;2023-02-03T00:03:17;8.05;;;3.13;;
48635;SDS011;34429;52.332;5.614;2023-02-03T00:05:45;10.13;;;2.85;;
48635;SDS011;34429;52.332;5.614;2023-02-03T00:08:14;11.20;;;2.50;;
48635;SDS011;34429;52.332;5.614;2023-02-03T00:10:44;6.97;;;2.45;;
48635;SDS011;34429;52.332;5.614;2023-02-03T00:13:13;14.05;;;3.20;;
48635;SDS011;34429;52.332;5.614;2023-02-03T00:15:42;7.55;;;2.55;;
48635;SDS011;34429;52.332;5.614;2023-02-03T00:18:10;9.65;;;2.58;;
48635;SDS011;34429;52.332;5.614;2023-02-03T00:20:41;8.40;;;2.72;;
48635;SDS011;34429;52.332;5.614;2023-02-03T00:23:10;6.88;;;2.95;;
48635;SDS011;34429;52.332;5.614;2023-02-03T00:25:39;9.02;;;2.42;;
48635;SDS011;34429;52.332;5.614;2023-02-03T00:28:07;7.53;;;2.50;;
48635;SDS011;34429;52.332;5.614;2023-02-03T00:30:36;11.83;;;2.87;;
48635;SDS011;34429;52.332;5.614;2023-02-03T00:33:05;11.38;;;2.80;;
48635;SDS011;34429;52.332;5.614;2023-02-03T00:35:36;8.63;;;2.72;;
48635;SDS011;34429;52.332;5.614;2023-02-03T00:38:07;11.98;;;3.00;;
48635;SDS011;34429;52.332;5.614;2023-02-03T00:40:36;6.70;;;2.30;;
48635;SDS011;34429;52.332;5.614;2023-02-03T00:43:04;14.77;;;2.67;;
48635;SDS011;34429;52.332;5.614;2023-02-03T00:45:32;11.13;;;2.47;;
48635;SDS011;34429;52.332;5.614;2023-02-03T00:48:01;12.25;;;2.60;;
48635;SDS011;34429;52.332;5.614;2023-02-03T00:50:30;9.05;;;2.25;;
48635;SDS011;34429;52.332;5.614;2023-02-03T00:52:58;11.02;;;3.03;;
48635;SDS011;34429;52.332;5.614;2023-02-03T00:55:29;10.10;;;2.28;;
48635;SDS011;34429;52.332;5.614;2023-02-03T00:57:57;9.48;;;2.13;;
48635;SDS011;34429;52.332;5.614;2023-02-03T01:00:29;13.38;;;2.67;;
48635;SDS011;34429;52.332;5.614;2023-02-03T01:02:57;7.10;;;2.10;;
48635;SDS011;34429;52.332;5.614;2023-02-03T01:05:26;9.32;;;2.17;;
48635;SDS011;34429;52.332;5.614;2023-02-03T01:07:54;10.10;;;2.15;;
48635;SDS011;34429;52.332;5.614;2023-02-03T01:10:22;6.85;;;1.90;;
48635;SDS011;34429;52.332;5.614;2023-02-03T01:12:53;9.48;;;2.22;;
48635;SDS011;34429;52.332;5.614;2023-02-03T01:15:22;11.02;;;2.40;;
48635;SDS011;34429;52.332;5.614;2023-02-03T01:17:50;8.25;;;2.00;;
48635;SDS011;34429;52.332;5.614;2023-02-03T01:20:18;6.20;;;2.20;;
48635;SDS011;34429;52.332;5.614;2023-02-03T01:22:48;12.70;;;2.60;;
48635;SDS011;34429;52.332;5.614;2023-02-03T01:25:16;12.73;;;2.50;;
48635;SDS011;34429;52.332;5.614;2023-02-03T01:27:45;9.83;;;1.97;;
48635;SDS011;34429;52.332;5.614;2023-02-03T01:30:16;7.88;;;1.85;;
48635;SDS011;34429;52.332;5.614;2023-02-03T01:32:45;11.23;;;2.10;;
48635;SDS011;34429;52.332;5.614;2023-02-03T01:35:13;14.18;;;2.22;;
48635;SDS011;34429;52.332;5.614;2023-02-03T01:37:41;7.07;;;2.25;;
48635;SDS011;34429;52.332;5.614;2023-02-03T01:40:10;7.43;;;2.33;;
48635;SDS011;34429;52.332;5.614;2023-02-03T01:42:39;7.38;;;2.13;;
48635;SDS011;34429;52.332;5.614;2023-02-03T01:45:08;9.63;;;2.10;;
48635;SDS011;34429;52.332;5.614;2023-02-03T01:47:41;7.10;;;1.67;;
48635;SDS011;34429;52.332;5.614;2023-02-03T01:50:19;9.18;;;3.03;;
48635;SDS011;34429;52.332;5.614;2023-02-03T01:52:51;7.50;;;2.28;;
48635;SDS011;34429;52.332;5.614;2023-02-03T01:55:24;9.07;;;2.08;;
48635;SDS011;34429;52.332;5.614;2023-02-03T01:57:58;8.68;;;2.10;;
48635;SDS011;34429;52.332;5.614;2023-02-03T02:00:29;10.02;;;1.95;;
48635;SDS011;34429;52.332;5.614;2023-02-03T02:03:00;6.15;;;1.95;;
48635;SDS011;34429;52.332;5.614;2023-02-03T02:05:33;13.70;;;2.40;;
48635;SDS011;34429;52.332;5.614;2023-02-03T02:08:04;10.68;;;2.70;;
48635;SDS011;34429;52.332;5.614;2023-02-03T02:10:40;9.57;;;1.88;;
48635;SDS011;34429;52.332;5.614;2023-02-03T02:13:09;9.25;;;2.40;;
48635;SDS011;34429;52.332;5.614;2023-02-03T02:15:42;6.65;;;2.55;;
48635;SDS011;34429;52.332;5.614;2023-02-03T02:18:22;9.83;;;2.03;;
48635;SDS011;34429;52.332;5.614;2023-02-03T02:24:23;11.25;;;1.90;;
48635;SDS011;34429;52.332;5.614;2023-02-03T02:27:07;9.10;;;1.92;;
48635;SDS011;34429;52.332;5.614;2023-02-03T02:30:05;5.43;;;1.70;;
48635;SDS011;34429;52.332;5.614;2023-02-03T02:32:53;8.45;;;2.15;;
48635;SDS011;34429;52.332;5.614;2023-02-03T02:35:31;7.95;;;1.92;;
48635;SDS011;34429;52.332;5.614;2023-02-03T02:38:13;6.22;;;1.77;;
48635;SDS011;34429;52.332;5.614;2023-02-03T02:40:48;13.70;;;2.65;;
48635;SDS011;34429;52.332;5.614;2023-02-03T02:43:22;6.88;;;2.00;;
48635;SDS011;34429;52.332;5.614;2023-02-03T02:45:55;6.60;;;2.20;;
48635;SDS011;34429;52.332;5.614;2023-02-03T02:48:31;7.68;;;1.33;;
48635;SDS011;34429;52.332;5.614;2023-02-03T02:51:04;6.70;;;1.88;;
48635;SDS011;34429;52.332;5.614;2023-02-03T02:53:36;4.90;;;1.88;;
48635;SDS011;34429;52.332;5.614;2023-02-03T02:56:08;7.20;;;1.90;;
48635;SDS011;34429;52.332;5.614;2023-02-03T02:58:38;7.78;;;1.65;;
48635;SDS011;34429;52.332;5.614;2023-02-03T03:01:11;8.90;;;1.50;;
48635;SDS011;34429;52.332;5.614;2023-02-03T03:03:43;4.20;;;1.45;;
48635;SDS011;34429;52.332;5.614;2023-02-03T03:06:13;6.40;;;1.50;;
48635;SDS011;34429;52.332;5.614;2023-02-03T03:08:47;7.35;;;1.60;;
48635;SDS011;34429;52.332;5.614;2023-02-03T03:11:20;5.55;;;1.45;;
48635;SDS011;34429;52.332;5.614;2023-02-03T03:13:50;6.28;;;1.50;;
48635;SDS011;34429;52.332;5.614;2023-02-03T03:16:21;5.03;;;1.42;;
48635;SDS011;34429;52.332;5.614;2023-02-03T03:18:55;5.88;;;1.50;;
48635;SDS011;34429;52.332;5.614;2023-02-03T03:21:27;6.28;;;1.40;;
48635;SDS011;34429;52.332;5.614;2023-02-03T03:24:00;8.40;;;1.40;;
48635;SDS011;34429;52.332;5.614;2023-02-03T03:26:35;10.35;;;1.60;;
48635;SDS011;34429;52.332;5.614;2023-02-03T03:29:09;5.65;;;1.20;;
48635;SDS011;34429;52.332;5.614;2023-02-03T03:31:40;8.75;;;1.75;;
48635;SDS011;34429;52.332;5.614;2023-02-03T03:34:11;9.68;;;1.92;;
48635;SDS011;34429;52.332;5.614;2023-02-03T03:36:43;10.23;;;1.88;;
48635;SDS011;34429;52.332;5.614;2023-02-03T03:39:16;4.82;;;1.35;;
48635;SDS011;34429;52.332;5.614;2023-02-03T03:41:56;5.55;;;1.40;;
48635;SDS011;34429;52.332;5.614;2023-02-03T03:44:32;6.95;;;1.48;;
48635;SDS011;34429;52.332;5.614;2023-02-03T03:47:08;7.60;;;1.50;;
48635;SDS011;34429;52.332;5.614;2023-02-03T03:49:46;7.03;;;1.75;;
48635;SDS011;34429;52.332;5.614;2023-02-03T03:52:17;12.15;;;1.75;;
48635;SDS011;34429;52.332;5.614;2023-02-03T03:54:50;7.18;;;1.70;;
48635;SDS011;34429;52.332;5.614;2023-02-03T03:57:21;6.75;;;1.95;;
48635;SDS011;34429;52.332;5.614;2023-02-03T03:59:53;8.75;;;1.80;;
48635;SDS011;34429;52.332;5.614;2023-02-03T04:02:22;8.80;;;1.45;;
48635;SDS011;34429;52.332;5.614;2023-02-03T04:04:53;10.10;;;1.52;;
48635;SDS011;34429;52.332;5.614;2023-02-03T04:07:36;15.43;;;3.63;;
48635;SDS011;34429;52.332;5.614;2023-02-03T04:10:06;9.85;;;1.80;;
48635;SDS011;34429;52.332;5.614;2023-02-03T04:12:43;7.45;;;1.77;;
48635;SDS011;34429;52.332;5.614;2023-02-03T04:15:11;8.50;;;1.70;;
48635;SDS011;34429;52.332;5.614;2023-02-03T04:17:39;5.38;;;1.73;;
48635;SDS011;34429;52.332;5.614;2023-02-03T04:20:11;3.83;;;1.37;;
48635;SDS011;34429;52.332;5.614;2023-02-03T04:22:40;6.93;;;1.42;;
48635;SDS011;34429;52.332;5.614;2023-02-03T04:25:09;8.13;;;1.80;;
48635;SDS011;34429;52.332;5.614;2023-02-03T04:27:37;10.37;;;2.33;;
48635;SDS011;34429;52.332;5.614;2023-02-03T04:30:06;6.07;;;1.70;;
48635;SDS011;34429;52.332;5.614;2023-02-03T04:32:35;7.45;;;2.70;;
48635;SDS011;34429;52.332;5.614;2023-02-03T04:35:06;7.80;;;1.80;;
48635;SDS011;34429;52.332;5.614;2023-02-03T04:37:37;4.45;;;1.42;;
48635;SDS011;34429;52.332;5.614;2023-02-03T04:40:07;5.93;;;1.80;;
48635;SDS011;34429;52.332;5.614;2023-02-03T04:42:36;3.63;;;1.40;;
48635;SDS011;34429;52.332;5.614;2023-02-03T04:45:06;4.47;;;1.60;;
48635;SDS011;34429;52.332;5.614;2023-02-03T04:47:36;6.57;;;1.85;;
48635;SDS011;34429;52.332;5.614;2023-02-03T04:50:05;8.20;;;1.80;;
48635;SDS011;34429;52.332;5.614;2023-02-03T04:52:34;9.82;;;1.85;;
48635;SDS011;34429;52.332;5.614;2023-02-03T04:55:05;5.88;;;1.67;;
48635;SDS011;34429;52.332;5.614;2023-02-03T04:57:34;9.70;;;1.60;;
48635;SDS011;34429;52.332;5.614;2023-02-03T05:00:03;10.45;;;1.80;;
48635;SDS011;34429;52.332;5.614;2023-02-03T05:02:32;9.55;;;1.80;;
48635;SDS011;34429;52.332;5.614;2023-02-03T05:05:01;8.98;;;1.55;;
48635;SDS011;34429;52.332;5.614;2023-02-03T05:07:29;10.75;;;1.70;;
48635;SDS011;34429;52.332;5.614;2023-02-03T05:09:57;6.07;;;1.30;;
48635;SDS011;34429;52.332;5.614;2023-02-03T05:12:28;9.18;;;2.22;;
48635;SDS011;34429;52.332;5.614;2023-02-03T05:14:57;11.48;;;2.13;;
48635;SDS011;34429;52.332;5.614;2023-02-03T05:17:25;8.57;;;1.23;;
48635;SDS011;34429;52.332;5.614;2023-02-03T05:19:53;5.63;;;1.75;;
48635;SDS011;34429;52.332;5.614;2023-02-03T05:22:22;6.60;;;1.83;;
48635;SDS011;34429;52.332;5.614;2023-02-03T05:24:50;5.63;;;1.80;;
48635;SDS011;34429;52.332;5.614;2023-02-03T05:27:18;8.40;;;2.58;;
48635;SDS011;34429;52.332;5.614;2023-02-03T05:29:49;11.18;;;1.58;;
48635;SDS011;34429;52.332;5.614;2023-02-03T05:32:17;12.30;;;2.22;;
48635;SDS011;34429;52.332;5.614;2023-02-03T05:34:46;11.60;;;2.13;;
48635;SDS011;34429;52.332;5.614;2023-02-03T05:37:14;9.87;;;2.00;;
48635;SDS011;34429;52.332;5.614;2023-02-03T05:39:42;8.10;;;1.63;;
48635;SDS011;34429;52.332;5.614;2023-02-03T05:42:11;6.43;;;1.53;;
48635;SDS011;34429;52.332;5.614;2023-02-03T05:44:36;8.80;;;2.15;;
48635;SDS011;34429;52.332;5.614;2023-02-03T05:47:08;8.02;;;2.03;;
48635;SDS011;34429;52.332;5.614;2023-02-03T05:49:36;4.57;;;1.75;;
48635;SDS011;34429;52.332;5.614;2023-02-03T05:52:04;8.32;;;1.80;;
48635;SDS011;34429;52.332;5.614;2023-02-03T05:54:33;9.57;;;2.20;;
48635;SDS011;34429;52.332;5.614;2023-02-03T05:57:01;12.07;;;3.13;;
48635;SDS011;34429;52.332;5.614;2023-02-03T05:59:29;8.03;;;2.17;;
48635;SDS011;34429;52.332;5.614;2023-02-03T06:01:58;13.18;;;2.03;;
48635;SDS011;34429;52.332;5.614;2023-02-03T06:04:29;8.23;;;1.58;;
48635;SDS011;34429;52.332;5.614;2023-02-03T06:06:57;7.85;;;1.95;;
48635;SDS011;34429;52.332;5.614;2023-02-03T06:09:25;12.05;;;1.90;;
48635;SDS011;34429;52.332;5.614;2023-02-03T06:11:54;8.48;;;1.65;;
48635;SDS011;34429;52.332;5.614;2023-02-03T06:14:22;9.82;;;1.77;;
48635;SDS011;34429;52.332;5.614;2023-02-03T06:16:52;8.45;;;1.77;;
48635;SDS011;34429;52.332;5.614;2023-02-03T06:19:20;8.25;;;1.88;;
48635;SDS011;34429;52.332;5.614;2023-02-03T06:21:51;7.65;;;1.75;;
48635;SDS011;34429;52.332;5.614;2023-02-03T06:24:19;7.13;;;1.70;;
48635;SDS011;34429;52.332;5.614;2023-02-03T06:26:48;9.02;;;2.10;;
48635;SDS011;34429;52.332;5.614;2023-02-03T06:29:16;9.65;;;1.80;;
48635;SDS011;34429;52.332;5.614;2023-02-03T06:31:44;11.00;;;1.95;;
48635;SDS011;34429;52.332;5.614;2023-02-03T06:34:13;7.22;;;1.70;;
48635;SDS011;34429;52.332;5.614;2023-02-03T06:36:41;8.95;;;2.08;;
48635;SDS011;34429;52.332;5.614;2023-02-03T06:39:12;5.55;;;1.60;;
48635;SDS011;34429;52.332;5.614;2023-02-03T06:41:40;10.32;;;1.70;;
48635;SDS011;34429;52.332;5.614;2023-02-03T06:44:09;10.75;;;2.30;;
48635;SDS011;34429;52.332;5.614;2023-02-03T06:46:37;10.45;;;2.22;;
48635;SDS011;34429;52.332;5.614;2023-02-03T06:49:05;8.80;;;2.17;;
48635;SDS011;34429;52.332;5.614;2023-02-03T06:51:34;11.23;;;2.00;;
48635;SDS011;34429;52.332;5.614;2023-02-03T06:54:02;16.90;;;2.40;;
48635;SDS011;34429;52.332;5.614;2023-02-03T06:59:02;9.40;;;2.38;;
48635;SDS011;34429;52.332;5.614;2023-02-03T07:01:31;8.68;;;2.22;;
48635;SDS011;34429;52.332;5.614;2023-02-03T07:03:59;12.47;;;2.20;;
48635;SDS011;34429;52.332;5.614;2023-02-03T07:06:27;11.77;;;3.03;;
48635;SDS011;34429;52.332;5.614;2023-02-03T07:08:58;10.07;;;2.67;;
48635;SDS011;34429;52.332;5.614;2023-02-03T07:11:27;10.75;;;1.98;;
48635;SDS011;34429;52.332;5.614;2023-02-03T07:13:58;7.77;;;2.10;;
48635;SDS011;34429;52.332;5.614;2023-02-03T07:16:27;16.83;;;2.70;;
48635;SDS011;34429;52.332;5.614;2023-02-03T07:18:56;7.53;;;2.10;;
48635;SDS011;34429;52.332;5.614;2023-02-03T07:21:25;7.97;;;2.10;;
48635;SDS011;34429;52.332;5.614;2023-02-03T07:23:53;10.00;;;3.13;;
48635;SDS011;34429;52.332;5.614;2023-02-03T07:26:22;6.18;;;1.63;;
48635;SDS011;34429;52.332;5.614;2023-02-03T07:28:59;8.70;;;2.40;;
48635;SDS011;34429;52.332;5.614;2023-02-03T07:31:28;11.95;;;2.50;;
48635;SDS011;34429;52.332;5.614;2023-02-03T07:33:56;10.82;;;2.45;;
48635;SDS011;34429;52.332;5.614;2023-02-03T07:36:25;15.23;;;2.63;;
48635;SDS011;34429;52.332;5.614;2023-02-03T07:38:54;10.32;;;2.15;;
48635;SDS011;34429;52.332;5.614;2023-02-03T07:41:22;7.60;;;2.15;;
48635;SDS011;34429;52.332;5.614;2023-02-03T07:43:51;13.35;;;3.35;;
48635;SDS011;34429;52.332;5.614;2023-02-03T07:46:22;13.18;;;2.40;;
48635;SDS011;34429;52.332;5.614;2023-02-03T07:48:50;8.18;;;2.38;;
48635;SDS011;34429;52.332;5.614;2023-02-03T07:51:19;12.43;;;2.40;;
48635;SDS011;34429;52.332;5.614;2023-02-03T07:53:47;15.60;;;2.93;;
48635;SDS011;34429;52.332;5.614;2023-02-03T07:56:15;11.00;;;2.50;;
48635;SDS011;34429;52.332;5.614;2023-02-03T07:58:44;10.43;;;2.08;;
48635;SDS011;34429;52.332;5.614;2023-02-03T08:01:13;8.13;;;2.00;;
48635;SDS011;34429;52.332;5.614;2023-02-03T08:03:45;10.98;;;2.78;;
48635;SDS011;34429;52.332;5.614;2023-02-03T08:06:14;6.72;;;2.00;;
48635;SDS011;34429;52.332;5.614;2023-02-03T08:08:42;11.52;;;1.83;;
48635;SDS011;34429;52.332;5.614;2023-02-03T08:11:10;9.63;;;2.05;;
48635;SDS011;34429;52.332;5.614;2023-02-03T08:13:39;7.68;;;1.92;;
48635;SDS011;34429;52.332;5.614;2023-02-03T08:16:07;10.90;;;2.10;;
48635;SDS011;34429;52.332;5.614;2023-02-03T08:18:35;13.60;;;2.88;;
48635;SDS011;34429;52.332;5.614;2023-02-03T08:21:06;10.53;;;2.20;;
48635;SDS011;34429;52.332;5.614;2023-02-03T08:23:35;9.95;;;2.38;;
48635;SDS011;34429;52.332;5.614;2023-02-03T08:26:03;8.77;;;2.15;;
48635;SDS011;34429;52.332;5.614;2023-02-03T08:28:31;6.38;;;2.05;;
48635;SDS011;34429;52.332;5.614;2023-02-03T08:31:00;9.32;;;1.83;;
48635;SDS011;34429;52.332;5.614;2023-02-03T08:33:28;7.63;;;1.60;;
48635;SDS011;34429;52.332;5.614;2023-02-03T08:35:56;10.73;;;2.00;;
48635;SDS011;34429;52.332;5.614;2023-02-03T08:41:15;7.55;;;2.30;;
48635;SDS011;34429;52.332;5.614;2023-02-03T08:43:44;10.25;;;1.67;;
48635;SDS011;34429;52.332;5.614;2023-02-03T08:46:13;11.63;;;2.47;;
48635;SDS011;34429;52.332;5.614;2023-02-03T08:48:41;12.20;;;2.37;;
48635;SDS011;34429;52.332;5.614;2023-02-03T08:51:10;7.95;;;1.95;;
48635;SDS011;34429;52.332;5.614;2023-02-03T08:53:40;15.52;;;2.53;;
48635;SDS011;34429;52.332;5.614;2023-02-03T08:56:11;10.35;;;2.30;;
48635;SDS011;34429;52.332;5.614;2023-02-03T08:58:40;8.30;;;2.00;;
48635;SDS011;34429;52.332;5.614;2023-02-03T09:01:08;14.15;;;2.53;;
48635;SDS011;34429;52.332;5.614;2023-02-03T09:03:38;10.43;;;2.00;;
48635;SDS011;34429;52.332;5.614;2023-02-03T09:06:06;12.15;;;2.72;;
48635;SDS011;34429;52.332;5.614;2023-02-03T09:08:40;9.07;;;2.28;;
48635;SDS011;34429;52.332;5.614;2023-02-03T09:11:13;9.52;;;3.22;;
48635;SDS011;34429;52.332;5.614;2023-02-03T09:13:44;9.68;;;2.30;;
48635;SDS011;34429;52.332;5.614;2023-02-03T09:16:13;6.38;;;2.00;;
48635;SDS011;34429;52.332;5.614;2023-02-03T09:18:43;7.18;;;1.85;;
48635;SDS011;34429;52.332;5.614;2023-02-03T09:21:12;6.82;;;2.20;;
48635;SDS011;34429;52.332;5.614;2023-02-03T09:23:42;6.85;;;2.20;;
48635;SDS011;34429;52.332;5.614;2023-02-03T09:26:14;7.30;;;2.08;;
48635;SDS011;34429;52.332;5.614;2023-02-03T09:28:43;6.32;;;1.55;;
48635;SDS011;34429;52.332;5.614;2023-02-03T09:31:12;9.15;;;1.85;;
48635;SDS011;34429;52.332;5.614;2023-02-03T09:33:44;9.48;;;2.60;;
48635;SDS011;34429;52.332;5.614;2023-02-03T09:36:12;5.25;;;2.33;;
48635;SDS011;34429;52.332;5.614;2023-02-03T09:38:41;9.05;;;2.67;;
48635;SDS011;34429;52.332;5.614;2023-02-03T09:41:14;4.68;;;1.83;;
48635;SDS011;34429;52.332;5.614;2023-02-03T09:43:55;12.45;;;3.50;;
48635;SDS011;34429;52.332;5.614;2023-02-03T09:46:32;6.43;;;2.05;;
48635;SDS011;34429;52.332;5.614;2023-02-03T09:49:06;10.98;;;2.30;;
48635;SDS011;34429;52.332;5.614;2023-02-03T09:51:42;7.55;;;2.03;;
48635;SDS011;34429;52.332;5.614;2023-02-03T09:54:15;7.38;;;2.25;;
48635;SDS011;34429;52.332;5.614;2023-02-03T09:56:49;9.23;;;2.90;;
48635;SDS011;34429;52.332;5.614;2023-02-03T09:59:31;6.40;;;2.40;;
48635;SDS011;34429;52.332;5.614;2023-02-03T10:02:06;7.53;;;2.38;;
48635;SDS011;34429;52.332;5.614;2023-02-03T10:04:51;8.98;;;2.33;;
48635;SDS011;34429;52.332;5.614;2023-02-03T10:07:26;9.05;;;2.20;;
48635;SDS011;34429;52.332;5.614;2023-02-03T10:10:08;5.88;;;2.35;;
48635;SDS011;34429;52.332;5.614;2023-02-03T10:12:49;10.63;;;2.67;;
48635;SDS011;34429;52.332;5.614;2023-02-03T10:18:28;16.17;;;2.60;;
48635;SDS011;34429;52.332;5.614;2023-02-03T10:21:02;9.30;;;2.80;;
48635;SDS011;34429;52.332;5.614;2023-02-03T10:23:40;8.70;;;2.60;;
48635;SDS011;34429;52.332;5.614;2023-02-03T10:26:13;7.65;;;2.30;;
48635;SDS011;34429;52.332;5.614;2023-02-03T10:28:50;10.85;;;2.95;;
48635;SDS011;34429;52.332;5.614;2023-02-03T10:31:22;5.60;;;2.28;;
48635;SDS011;34429;52.332;5.614;2023-02-03T10:33:55;9.52;;;2.85;;
48635;SDS011;34429;52.332;5.614;2023-02-03T10:36:30;11.10;;;2.00;;
48635;SDS011;34429;52.332;5.614;2023-02-03T10:39:10;10.27;;;2.60;;
48635;SDS011;34429;52.332;5.614;2023-02-03T10:41:45;9.35;;;2.42;;
48635;SDS011;34429;52.332;5.614;2023-02-03T10:44:17;6.28;;;1.80;;
48635;SDS011;34429;52.332;5.614;2023-02-03T10:46:45;10.00;;;2.70;;
48635;SDS011;34429;52.332;5.614;2023-02-03T10:49:14;7.05;;;2.10;;
48635;SDS011;34429;52.332;5.614;2023-02-03T10:51:43;13.48;;;3.20;;
48635;SDS011;34429;52.332;5.614;2023-02-03T10:54:27;9.73;;;2.67;;
48635;SDS011;34429;52.332;5.614;2023-02-03T10:57:00;7.53;;;2.60;;
48635;SDS011;34429;52.332;5.614;2023-02-03T10:59:34;10.70;;;2.42;;
48635;SDS011;34429;52.332;5.614;2023-02-03T11:02:07;5.90;;;2.47;;
48635;SDS011;34429;52.332;5.614;2023-02-03T11:04:37;8.63;;;2.53;;
48635;SDS011;34429;52.332;5.614;2023-02-03T11:07:06;10.07;;;2.22;;
48635;SDS011;34429;52.332;5.614;2023-02-03T11:09:49;7.50;;;2.22;;
48635;SDS011;34429;52.332;5.614;2023-02-03T11:12:18;10.10;;;2.50;;
48635;SDS011;34429;52.332;5.614;2023-02-03T11:14:52;8.38;;;2.78;;
48635;SDS011;34429;52.332;5.614;2023-02-03T11:17:21;7.05;;;2.30;;
48635;SDS011;34429;52.332;5.614;2023-02-03T11:19:52;7.38;;;2.58;;
48635;SDS011;34429;52.332;5.614;2023-02-03T11:22:26;11.50;;;2.25;;
48635;SDS011;34429;52.332;5.614;2023-02-03T11:24:56;12.27;;;2.72;;
48635;SDS011;34429;52.332;5.614;2023-02-03T11:27:27;11.00;;;2.38;;
48635;SDS011;34429;52.332;5.614;2023-02-03T11:30:08;11.20;;;2.70;;
48635;SDS011;34429;52.332;5.614;2023-02-03T11:32:45;9.55;;;2.00;;
48635;SDS011;34429;52.332;5.614;2023-02-03T11:35:15;10.27;;;2.38;;
48635;SDS011;34429;52.332;5.614;2023-02-03T11:37:46;9.27;;;2.15;;
48635;SDS011;34429;52.332;5.614;2023-02-03T11:40:24;6.10;;;2.17;;
48635;SDS011;34429;52.332;5.614;2023-02-03T11:43:01;9.00;;;2.38;;
48635;SDS011;34429;52.332;5.614;2023-02-03T11:45:37;10.15;;;2.50;;
48635;SDS011;34429;52.332;5.614;2023-02-03T11:48:14;9.85;;;1.88;;
48635;SDS011;34429;52.332;5.614;2023-02-03T11:50:57;8.98;;;2.33;;
48635;SDS011;34429;52.332;5.614;2023-02-03T11:53:33;11.43;;;3.25;;
48635;SDS011;34429;52.332;5.614;2023-02-03T11:56:19;13.15;;;2.45;;
48635;SDS011;34429;52.332;5.614;2023-02-03T11:59:19;10.32;;;2.60;;
48635;SDS011;34429;52.332;5.614;2023-02-03T12:05:16;13.38;;;2.85;;
48635;SDS011;34429;52.332;5.614;2023-02-03T12:08:02;11.18;;;2.75;;
48635;SDS011;34429;52.332;5.614;2023-02-03T12:10:41;13.98;;;2.50;;
48635;SDS011;34429;52.332;5.614;2023-02-03T12:13:23;12.88;;;2.33;;
48635;SDS011;34429;52.332;5.614;2023-02-03T12:16:04;12.95;;;2.88;;
48635;SDS011;34429;52.332;5.614;2023-02-03T12:18:51;11.77;;;2.30;;
48635;SDS011;34429;52.332;5.614;2023-02-03T12:21:34;9.02;;;2.50;;
48635;SDS011;34429;52.332;5.614;2023-02-03T12:24:19;12.73;;;2.40;;
48635;SDS011;34429;52.332;5.614;2023-02-03T12:26:59;11.77;;;2.58;;
48635;SDS011;34429;52.332;5.614;2023-02-03T12:29:40;22.08;;;3.55;;
48635;SDS011;34429;52.332;5.614;2023-02-03T12:32:14;11.50;;;2.40;;
48635;SDS011;34429;52.332;5.614;2023-02-03T12:34:54;12.35;;;2.50;;
48635;SDS011;34429;52.332;5.614;2023-02-03T12:37:29;9.15;;;2.30;;
48635;SDS011;34429;52.332;5.614;2023-02-03T12:40:05;17.15;;;2.85;;
48635;SDS011;34429;52.332;5.614;2023-02-03T12:42:45;20.52;;;2.60;;
48635;SDS011;34429;52.332;5.614;2023-02-03T12:45:19;12.63;;;2.70;;
48635;SDS011;34429;52.332;5.614;2023-02-03T12:47:51;15.02;;;3.85;;
48635;SDS011;34429;52.332;5.614;2023-02-03T12:50:28;12.20;;;2.63;;
48635;SDS011;34429;52.332;5.614;2023-02-03T12:53:00;7.13;;;2.40;;
48635;SDS011;34429;52.332;5.614;2023-02-03T12:55:33;24.98;;;2.90;;
48635;SDS011;34429;52.332;5.614;2023-02-03T12:58:06;19.95;;;3.03;;
48635;SDS011;34429;52.332;5.614;2023-02-03T13:00:40;14.68;;;3.00;;
48635;SDS011;34429;52.332;5.614;2023-02-03T13:03:15;11.25;;;2.80;;
48635;SDS011;34429;52.332;5.614;2023-02-03T13:05:53;14.00;;;2.60;;
48635;SDS011;34429;52.332;5.614;2023-02-03T13:08:34;15.52;;;3.00;;
48635;SDS011;34429;52.332;5.614;2023-02-03T13:11:10;21.42;;;3.20;;
48635;SDS011;34429;52.332;5.614;2023-02-03T13:13:47;15.75;;;3.67;;
48635;SDS011;34429;52.332;5.614;2023-02-03T13:16:20;20.23;;;2.88;;
48635;SDS011;34429;52.332;5.614;2023-02-03T13:18:55;14.52;;;2.95;;
48635;SDS011;34429;52.332;5.614;2023-02-03T13:21:31;13.68;;;2.95;;
48635;SDS011;34429;52.332;5.614;2023-02-03T13:24:01;16.02;;;2.97;;
48635;SDS011;34429;52.332;5.614;2023-02-03T13:26:37;12.38;;;2.58;;
48635;SDS011;34429;52.332;5.614;2023-02-03T13:29:24;11.60;;;2.95;;
48635;SDS011;34429;52.332;5.614;2023-02-03T13:32:06;24.02;;;3.85;;
48635;SDS011;34429;52.332;5.614;2023-02-03T13:34:52;18.98;;;3.00;;
48635;SDS011;34429;52.332;5.614;2023-02-03T13:37:49;19.05;;;3.30;;
48635;SDS011;34429;52.332;5.614;2023-02-03T13:40:36;18.98;;;3.38;;
48635;SDS011;34429;52.332;5.614;2023-02-03T13:43:13;27.42;;;3.60;;
48635;SDS011;34429;52.332;5.614;2023-02-03T13:45:45;15.38;;;3.10;;
48635;SDS011;34429;52.332;5.614;2023-02-03T13:48:17;19.80;;;3.08;;
48635;SDS011;34429;52.332;5.614;2023-02-03T13:50:48;12.15;;;2.75;;
48635;SDS011;34429;52.332;5.614;2023-02-03T13:53:22;21.13;;;3.78;;
48635;SDS011;34429;52.332;5.614;2023-02-03T13:55:54;22.75;;;3.47;;
48635;SDS011;34429;52.332;5.614;2023-02-03T13:58:24;16.50;;;3.38;;
48635;SDS011;34429;52.332;5.614;2023-02-03T14:01:03;21.45;;;3.08;;
48635;SDS011;34429;52.332;5.614;2023-02-03T14:03:49;22.35;;;4.55;;
48635;SDS011;34429;52.332;5.614;2023-02-03T14:09:36;17.65;;;3.45;;
48635;SDS011;34429;52.332;5.614;2023-02-03T14:15:00;27.92;;;4.20;;
48635;SDS011;34429;52.332;5.614;2023-02-03T14:17:54;23.80;;;3.88;;
48635;SDS011;34429;52.332;5.614;2023-02-03T14:23:27;16.20;;;3.30;;
48635;SDS011;34429;52.332;5.614;2023-02-03T14:26:08;23.45;;;4.30;;
48635;SDS011;34429;52.332;5.614;2023-02-03T14:28:44;19.60;;;3.50;;
48635;SDS011;34429;52.332;5.614;2023-02-03T14:31:18;29.10;;;3.97;;
48635;SDS011;34429;52.332;5.614;2023-02-03T14:33:56;22.77;;;3.72;;
48635;SDS011;34429;52.332;5.614;2023-02-03T14:36:33;19.50;;;3.60;;
48635;SDS011;34429;52.332;5.614;2023-02-03T14:42:06;18.40;;;3.40;;
48635;SDS011;34429;52.332;5.614;2023-02-03T14:44:47;22.63;;;3.92;;
48635;SDS011;34429;52.332;5.614;2023-02-03T14:47:34;25.90;;;3.28;;
48635;SDS011;34429;52.332;5.614;2023-02-03T14:50:27;23.58;;;3.70;;
48635;SDS011;34429;52.332;5.614;2023-02-03T14:53:12;23.98;;;3.55;;
48635;SDS011;34429;52.332;5.614;2023-02-03T14:55:56;22.40;;;4.23;;
48635;SDS011;34429;52.332;5.614;2023-02-03T14:58:40;19.75;;;3.55;;
48635;SDS011;34429;52.332;5.614;2023-02-03T15:01:22;15.90;;;3.30;;
48635;SDS011;34429;52.332;5.614;2023-02-03T15:06:51;22.80;;;3.97;;
48635;SDS011;34429;52.332;5.614;2023-02-03T15:09:25;19.67;;;3.45;;
48635;SDS011;34429;52.332;5.614;2023-02-03T15:11:58;16.23;;;3.20;;
48635;SDS011;34429;52.332;5.614;2023-02-03T15:16:59;24.55;;;3.55;;
48635;SDS011;34429;52.332;5.614;2023-02-03T15:19:31;20.83;;;3.70;;
48635;SDS011;34429;52.332;5.614;2023-02-03T15:22:01;25.67;;;3.85;;
48635;SDS011;34429;52.332;5.614;2023-02-03T15:24:33;25.90;;;3.72;;
48635;SDS011;34429;52.332;5.614;2023-02-03T15:27:03;17.67;;;3.95;;
48635;SDS011;34429;52.332;5.614;2023-02-03T15:29:34;20.75;;;4.25;;
48635;SDS011;34429;52.332;5.614;2023-02-03T15:32:07;21.40;;;3.67;;
48635;SDS011;34429;52.332;5.614;2023-02-03T15:34:40;22.25;;;3.50;;
48635;SDS011;34429;52.332;5.614;2023-02-03T15:37:13;16.55;;;3.45;;
48635;SDS011;34429;52.332;5.614;2023-02-03T15:39:51;24.67;;;5.75;;
48635;SDS011;34429;52.332;5.614;2023-02-03T15:42:28;24.95;;;4.10;;
48635;SDS011;34429;52.332;5.614;2023-02-03T15:45:07;21.92;;;3.40;;